• Join FlightAware (Why Join?)
  • Login
  • US Flag 
 
12:11PM EST


 

Airport Tracker/Info


-or-


 

Live Flight TrackerFlight Track Log ✈ D-AIFA ✈ 04-May-2013 ✈ OIIE / IKA - EDDF / FRA

Flight Track Log - Related Links

Times and Time Zones

All times are in EDT time to prevent confusion due to time zone crossing. See the D-AIFA flight status page for this flight to view local times or setup timezone preferences in your user account.

Time Position Orientation Groundspeed Altitude Reporting Facility
EDT Latitude Longitude Course Direction KTS MPH feet Rate Location/Type
06:47PM 35.7843 50.5821 309° West  Level Estimated
06:48PM 35.8572 50.4691 309° West  Level Estimated
06:49PM 35.9299 50.3559 308° West  Level Estimated
06:50PM 36.0026 50.2425 308° West  Level Estimated
06:51PM 36.0752 50.1289 308° West  Level Estimated
06:52PM 36.1476 50.0151 308° West  Level Estimated
06:53PM 36.2200 49.9011 308° West  Level Estimated
06:54PM 36.2922 49.7869 308° West  Level Estimated
06:55PM 36.3643 49.6725 308° West  Level Estimated
06:56PM 36.4364 49.5578 308° West  Level Estimated
06:57PM 36.5083 49.4430 308° West  Level Estimated
06:58PM 36.5801 49.3279 308° West  Level Estimated
06:59PM 36.6517 49.2126 308° West  Level Estimated
07:00PM 36.7233 49.0971 308° West  Level Estimated
07:01PM 36.7948 48.9814 308° West  Level Estimated
07:02PM 36.8661 48.8654 308° West  Level Estimated
07:03PM 36.9374 48.7493 308° West  Level Estimated
07:04PM 37.0085 48.6329 307° West  Level Estimated
07:05PM 37.0795 48.5163 307° West  Level Estimated
07:06PM 37.1504 48.3995 307° West  Level Estimated
07:07PM 37.2232 48.2792 307° West  Level Estimated
07:08PM 37.2959 48.1586 307° West  Level Estimated
07:09PM 37.3684 48.0378 307° West  Level Estimated
07:10PM 37.4409 47.9167 307° West  Level Estimated
07:11PM 37.5132 47.7954 307° West  Level Estimated
07:12PM 37.5853 47.6739 307° West  Level Estimated
07:13PM 37.6574 47.5522 307° West  Level Estimated
07:14PM 37.7293 47.4302 307° West  Level Estimated
07:15PM 37.8011 47.3079 307° West  Level Estimated
07:16PM 37.8728 47.1855 307° West  Level Estimated
07:17PM 37.9443 47.0628 307° West  Level Estimated
07:18PM 38.0157 46.9398 306° West  Level Estimated
07:19PM 38.0870 46.8167 306° West  Level Estimated
07:20PM 38.1582 46.6932 306° West  Level Estimated
07:21PM 38.2292 46.5696 306° West  Level Estimated
07:22PM 38.3001 46.4457 306° West  Level Estimated
07:22PM 37.3840 46.2240 306° West 453 521 38,000  Level FlightAware
07:23PM 38.3709 46.3215 306° West  Level Estimated
07:23PM 37.4090 46.1290 288° West 452 520 38,000  Level FlightAware
07:23PM 37.4410 46.0100 289° West 450 518 38,000  Level FlightAware
07:24PM 37.4680 45.9110 289° West 452 520 38,000  Level FlightAware
07:25PM 37.4950 45.8120 289° West 453 521 38,000  Level FlightAware
07:25PM 37.5250 45.7000 289° West 453 521 38,000  Level FlightAware
07:26PM 37.5510 45.6000 288° West 452 520 38,000  Level FlightAware
07:27PM 37.5820 45.4860 289° West 452 520 38,000  Level FlightAware
07:27PM 37.6070 45.3900 288° West 452 520 38,000  Level FlightAware
07:28PM 37.6350 45.2850 289° West 452 520 38,000  Level FlightAware
07:29PM 37.6640 45.1760 289° West 452 520 38,000  Level FlightAware
07:30PM 37.6940 45.0770 291° West 453 521 38,000  Level FlightAware
07:30PM 37.7400 44.9710 299° West 452 520 38,000  Level FlightAware
07:31PM 37.7820 44.8830 301° West 453 521 38,000  Level FlightAware
07:32PM 37.8240 44.7910 300° West 452 520 38,000  Level FlightAware
07:32PM 37.8730 44.6870 301° West 452 520 38,000  Level FlightAware
07:33PM 37.9140 44.5960 300° West 451 519 38,000  Level FlightAware
07:34PM 37.9560 44.5050 300° West 451 519 38,000  Level FlightAware
07:34PM 38.0010 44.4050 300° West 451 519 38,000  Level FlightAware
07:35PM 38.0400 44.3200 300° West 451 519 38,000  Level FlightAware
07:36PM 38.0840 44.2200 299° West 452 520 38,000  Level FlightAware
07:37PM 38.1290 44.1110 298° West 454 522 38,000  Level FlightAware
07:37PM 38.1670 44.0200 298° West 455 524 38,000  Level FlightAware
07:38PM 38.2160 43.9020 298° West 457 526 38,000  Level FlightAware
07:39PM 38.2570 43.8030 298° West 458 527 38,000  Level FlightAware
07:39PM 38.2980 43.7090 299° West 456 525 38,000  Level FlightAware
07:40PM 38.3440 43.6050 299° West 458 527 38,000  Level FlightAware
07:41PM 38.3850 43.5120 299° West 458 527 38,000  Level FlightAware
07:42PM 38.4300 43.4080 299° West 453 521 38,000  Level FlightAware
07:42PM 38.4750 43.3170 302° West 451 519 38,000  Level FlightAware
07:43PM 38.5350 43.2280 311° West 449 517 38,000  Level FlightAware
07:44PM 38.6040 43.1340 313° West 447 514 38,000  Level FlightAware
07:45PM 38.6600 43.0540 312° West 447 514 38,000  Level FlightAware
07:45PM 38.7430 42.9400 313° West 443 510 38,000  Level FlightAware
07:46PM 38.7900 42.8730 312° West 443 510 38,000  Level FlightAware
07:47PM 38.8360 42.8070 312° West 443 510 38,000  Level FlightAware
07:48PM 38.9170 42.6970 313° West 446 513 38,000  Level FlightAware
07:48PM 38.9640 42.6300 312° West 446 513 38,000  Level FlightAware
07:49PM 39.0480 42.5120 313° West 448 516 38,000  Level FlightAware
07:50PM 39.0950 42.4450 312° West 448 516 38,000  Level FlightAware
07:51PM 39.1540 42.3600 312° West 448 516 38,000  Level FlightAware
07:51PM 39.2010 42.2930 312° West 448 516 38,000  Level FlightAware
07:52PM 39.2490 42.2250 312° West 448 516 38,000  Level FlightAware
07:53PM 39.2960 42.1580 312° West 448 516 38,000  Level FlightAware
07:53PM 39.3430 42.0900 312° West 448 516 38,000  Level FlightAware
07:54PM 39.4020 42.0050 312° West 448 516 38,000  Level FlightAware
07:55PM 39.4490 41.9370 312° West 448 516 38,000  Level FlightAware
07:55PM 39.4960 41.8690 312° West 448 516 38,000  Level FlightAware
07:56PM 39.5430 41.8020 312° West 448 516 38,000  Level FlightAware
07:57PM 39.5900 41.7340 312° West 448 516 38,000  Level FlightAware
07:58PM 39.6490 41.6490 312° West 448 516 38,000  Level FlightAware
07:58PM 39.6970 41.5810 313° West 448 516 38,000  Level FlightAware
08:01PM 39.8487 41.2986 305° West  Level Estimated
08:02PM 39.9175 41.1698 305° West  Level Estimated
08:03PM 39.9861 41.0408 305° West  Level Estimated
08:04PM 40.0545 40.9115 305° West  Level Estimated
08:05PM 40.1228 40.7819 305° West  Level Estimated
08:06PM 40.1910 40.6521 305° West  Level Estimated
08:07PM 40.2590 40.5220 304° West  Level Estimated
08:08PM 40.3269 40.3917 304° West  Level Estimated
08:08PM 40.6880 40.2110 304° West 460 529 38,000  Level FlightAware
08:09PM 40.7380 40.1410 313° West 459 528 38,000  Level FlightAware
08:09PM 40.8040 40.0510 314° West 461 531 38,000  Level FlightAware
08:10PM 40.8700 39.9620 314° West 463 533 38,000  Level FlightAware
08:11PM 40.9540 39.8470 314° West 464 534 38,000  Level FlightAware
08:12PM 41.0130 39.7360 305° West 463 533 38,000  Level FlightAware
08:13PM 41.0470 39.6500 298° West 462 532 38,000  Level FlightAware
08:13PM 41.0990 39.5090 296° West 462 532 38,000  Level FlightAware
08:14PM 41.1400 39.3930 295° West 459 528 38,000  Level FlightAware
08:15PM 41.1740 39.2950 295° West 460 529 38,000  Level FlightAware
08:15PM 41.2020 39.2140 295° West 460 529 38,000  Level FlightAware
08:16PM 41.2380 39.1040 294° West 460 529 38,000  Level FlightAware
08:17PM 41.2680 39.0160 294° West 460 529 38,000  Level FlightAware
08:18PM 41.2970 38.9280 294° West 460 529 38,000  Level FlightAware
08:18PM 41.3270 38.8400 294° West 460 529 38,000  Level FlightAware
08:19PM 41.3560 38.7520 294° West 460 529 38,000  Level FlightAware
08:20PM 41.3850 38.6640 294° West 460 529 38,000  Level FlightAware
08:20PM 41.4220 38.5540 294° West 460 529 38,000  Level FlightAware
08:21PM 41.4520 38.4660 294° West 460 529 38,000  Level FlightAware
08:22PM 41.4810 38.3770 294° West 460 529 38,000  Level FlightAware
08:22PM 41.5590 38.1260 293° West 468 539 38,000  Level FlightAware
08:23PM 41.5940 38.0150 293° West 468 539 38,000  Level FlightAware
08:24PM 41.6230 37.9240 293° West 468 539 38,000  Level FlightAware
08:25PM 41.6520 37.8330 293° West 468 539 38,000  Level FlightAware
08:25PM 41.7160 37.6400 294° West 461 531 38,000  Level FlightAware
08:26PM 41.7470 37.5420 293° West 461 531 38,000  Level FlightAware
08:27PM 41.7810 37.4380 294° West 463 533 38,000  Level FlightAware
08:27PM 41.8150 37.3280 293° West 464 534 38,000  Level FlightAware
08:28PM 41.8520 37.2120 293° West 463 533 38,000  Level FlightAware
08:29PM 41.8820 37.1160 293° West 463 533 38,000  Level FlightAware
08:29PM 41.9180 37.0020 293° West 463 533 38,000  Level FlightAware
08:30PM 41.9590 36.8720 293° West 463 533 38,000  Level FlightAware
08:31PM 41.9930 36.7610 292° West 462 532 38,000  Level FlightAware
08:32PM 42.0200 36.6700 292° West 462 532 38,000  Level FlightAware
08:32PM 42.0600 36.5450 293° West 458 527 38,000  Level FlightAware
08:33PM 42.0920 36.4380 292° West 460 529 38,000  Level FlightAware
08:34PM 42.1190 36.3480 292° West 460 529 38,000  Level FlightAware
08:34PM 42.1460 36.2570 292° West 460 529 38,000  Level FlightAware
08:35PM 42.1740 36.1670 293° West 460 529 38,000  Level FlightAware
08:36PM 42.2270 35.9930 292° West 465 535 38,000  Level FlightAware
08:36PM 42.2560 35.8990 293° West 466 536 38,000  Level FlightAware
08:37PM 42.2900 35.7840 292° West 466 536 38,000  Level FlightAware
08:38PM 42.3180 35.6930 293° West 466 536 38,000  Level FlightAware
08:39PM 42.3450 35.6010 292° West 466 536 38,000  Level FlightAware
08:39PM 42.3720 35.5090 292° West 466 536 38,000  Level FlightAware
08:40PM 42.4000 35.4170 292° West 466 536 38,000  Level FlightAware
08:41PM 42.4340 35.3020 292° West 466 536 38,000  Level FlightAware
08:41PM 42.4620 35.2090 292° West 466 536 38,000  Level FlightAware
08:42PM 42.4890 35.1170 292° West 466 536 38,000  Level FlightAware
08:43PM 42.5170 35.0250 292° West 466 536 38,000  Level FlightAware
08:43PM 42.5440 34.9330 292° West 466 536 38,000  Level FlightAware
08:44PM 42.6250 34.6370 290° West 450 518 38,000  Level FlightAware
08:47PM 42.7682 34.3178 302° West  Level Estimated
08:48PM 42.8306 34.1775 301° West  Level Estimated
08:49PM 42.8928 34.0369 301° West  Level Estimated
08:50PM 42.9549 33.8961 301° West  Level Estimated
08:51PM 43.0168 33.7549 301° West  Level Estimated
08:52PM 43.0786 33.6135 301° West  Level Estimated
08:53PM 43.1401 33.4718 301° West  Level Estimated
08:54PM 43.2015 33.3298 301° West  Level Estimated
08:55PM 43.2627 33.1876 301° West  Level Estimated
08:56PM 43.3237 33.0450 301° West  Level Estimated
08:57PM 43.3846 32.9022 300° West  Level Estimated
08:58PM 43.4453 32.7590 300° West  Level Estimated
08:59PM 43.5058 32.6156 300° West  Level Estimated
09:00PM 43.5661 32.4719 300° West  Level Estimated
09:01PM 43.6262 32.3279 300° West  Level Estimated
09:01PM 43.4120 31.9310 300° West 452 520 38,000  Level FlightAware
09:04PM 43.5519 31.6049 301° West  Level Estimated
09:05PM 43.6129 31.4616 300° West  Level Estimated
09:06PM 43.6737 31.3181 300° West  Level Estimated
09:07PM 43.7343 31.1742 300° West  Level Estimated
09:07PM 43.6360 31.1420 300° West 446 513 38,000  Level FlightAware
09:08PM 43.7230 30.8170 290° West 446 513 38,000  Level FlightAware
09:09PM 43.7530 30.7000 290° West 444 511 38,000  Level FlightAware
09:10PM 43.8160 30.5180 296° West 445 512 38,000  Level FlightAware
09:12PM 43.9220 30.2080 295° West 446 513 38,000  Level FlightAware
09:13PM 43.9540 30.1150 296° West 448 516 38,000  Level FlightAware
09:13PM 43.9920 30.0040 295° West 451 519 38,000  Level FlightAware
09:14PM 44.0230 29.9120 295° West 451 519 38,000  Level FlightAware
09:15PM 44.0650 29.7880 295° West 450 518 38,000  Level FlightAware
09:16PM 44.1010 29.6810 295° West 450 518 38,000  Level FlightAware
09:16PM 44.1340 29.5790 294° West 449 517 38,000  Level FlightAware
09:17PM 44.1750 29.4560 295° West 451 519 38,000  Level FlightAware
09:18PM 44.2080 29.3580 295° West 451 519 38,000  Level FlightAware
09:18PM 44.2460 29.2420 295° West 452 520 38,000  Level FlightAware
09:19PM 44.2800 29.1380 295° West 452 520 38,000  Level FlightAware
09:20PM 44.3210 29.0140 295° West 451 519 38,000  Level FlightAware
09:20PM 44.3570 28.9040 295° West 452 520 38,000  Level FlightAware
09:21PM 44.3840 28.8190 294° West 452 520 38,000  Level FlightAware
09:22PM 44.4310 28.6760 295° West 453 521 38,000  Level FlightAware
09:22PM 44.4570 28.5930 294° West 452 520 38,000  Level FlightAware
09:23PM 44.4890 28.4930 294° West 452 520 38,000  Level FlightAware
09:24PM 44.5220 28.3910 294° West 454 522 38,000  Level FlightAware
09:24PM 44.5620 28.2660 294° West 457 526 38,000  Level FlightAware
09:25PM 44.5970 28.1530 294° West 459 528 38,000  Level FlightAware
09:26PM 44.6330 28.0400 294° West 458 527 38,000  Level FlightAware
09:27PM 44.6700 27.9220 294° West 459 528 38,000  Level FlightAware
09:27PM 44.7170 27.7720 294° West 460 529 38,000  Level FlightAware
09:28PM 44.7510 27.6590 293° West 461 531 38,000  Level FlightAware
09:29PM 44.7880 27.5410 294° West 460 529 38,000  Level FlightAware
09:30PM 44.8220 27.4310 294° West 460 529 38,000  Level FlightAware
09:30PM 44.8620 27.3000 293° West 462 532 38,000  Level FlightAware
09:31PM 44.8940 27.1960 294° West 464 534 38,000  Level FlightAware
09:32PM 44.9310 27.0730 293° West 465 535 38,000  Level FlightAware
09:32PM 44.9650 26.9590 293° West 465 535 38,000  Level FlightAware
09:33PM 45.0000 26.8430 293° West 463 533 38,000  Level FlightAware
09:34PM 45.0370 26.7200 293° West 462 532 38,000  Level FlightAware
09:34PM 45.0680 26.6160 293° West 462 532 38,000  Level FlightAware
09:35PM 45.1040 26.4960 293° West 463 533 38,000  Level FlightAware
09:36PM 45.1400 26.3730 293° West 463 533 38,000  Level FlightAware
09:36PM 45.1710 26.2650 292° West 464 534 38,000  Level FlightAware
09:37PM 45.2080 26.1420 293° West 465 535 38,000  Level FlightAware
09:38PM 45.2370 26.0420 292° West 462 532 38,000  Level FlightAware
09:39PM 45.2790 25.8960 292° West 461 531 38,000  Level FlightAware
09:39PM 45.3130 25.7780 292° West 457 526 38,000  Level FlightAware
09:40PM 45.3360 25.6990 293° West 455 524 38,000  Level FlightAware
09:41PM 45.3790 25.5480 292° West 455 524 38,000  Level FlightAware
09:41PM 45.4110 25.4350 292° West 457 526 38,000  Level FlightAware
09:42PM 45.4440 25.3170 292° West 459 528 38,000  Level FlightAware
09:43PM 45.4770 25.2010 292° West 456 525 38,000  Level FlightAware
09:44PM 45.5080 25.0900 292° West 456 525 38,000  Level FlightAware
09:44PM 45.5360 24.9890 292° West 455 524 38,000  Level FlightAware
09:45PM 45.5730 24.8570 292° West 455 524 38,000  Level FlightAware
09:46PM 45.6090 24.7260 291° West 455 524 38,000  Level FlightAware
09:47PM 45.6510 24.5750 292° West 457 526 38,000  Level FlightAware
09:47PM 45.6750 24.4870 291° West 459 528 38,000  Level FlightAware
09:48PM 45.7150 24.3400 291° West 457 526 38,000  Level FlightAware
09:49PM 45.7470 24.2200 291° West 456 525 38,000  Level FlightAware
09:49PM 45.7740 24.1200 291° West 457 526 38,000  Level FlightAware
09:50PM 45.8100 23.9850 291° West 460 529 38,000  Level FlightAware
09:51PM 45.8410 23.8680 291° West 459 528 38,000  Level FlightAware
09:52PM 45.8740 23.7450 291° West 457 526 38,000  Level FlightAware
09:52PM 45.9030 23.6320 290° West 456 525 38,000  Level FlightAware
09:53PM 45.9260 23.5440 291° West 455 524 38,000  Level FlightAware
09:54PM 45.9650 23.3940 291° West 455 524 38,000  Level FlightAware
09:54PM 45.9960 23.2760 291° West 456 525 38,000  Level FlightAware
09:55PM 46.0280 23.1520 290° West 459 528 38,000  Level FlightAware
09:56PM 46.0580 23.0340 290° West 461 531 38,000  Level FlightAware
09:56PM 46.0900 22.9160 291° West 463 533 38,000  Level FlightAware
09:57PM 46.1250 22.7920 292° West 463 533 38,000  Level FlightAware
09:58PM 46.1530 22.6880 291° West 461 531 38,000  Level FlightAware
09:58PM 46.1830 22.5760 291° West 459 528 38,000  Level FlightAware
09:59PM 46.2210 22.4370 292° West 455 524 38,000  Level FlightAware
10:00PM 46.2530 22.3170 291° West 454 522 38,000  Level FlightAware
10:01PM 46.2870 22.1890 291° West 453 521 38,000  Level FlightAware
10:01PM 46.3150 22.0850 291° West 449 517 38,000  Level FlightAware
10:02PM 46.3460 21.9650 291° West 449 517 38,000  Level FlightAware
10:03PM 46.3790 21.8410 291° West 451 519 38,000  Level FlightAware
10:03PM 46.4090 21.7250 291° West 450 518 38,000  Level FlightAware
10:04PM 46.4430 21.5950 291° West 445 512 38,000  Level FlightAware
10:05PM 46.4710 21.4860 290° West 444 511 38,000  Level FlightAware
10:05PM 46.5000 21.3720 290° West 445 512 38,000  Level FlightAware
10:06PM 46.5320 21.2470 290° West 443 510 38,000  Level FlightAware
10:07PM 46.5600 21.1370 290° West 442 509 38,000  Level FlightAware
10:08PM 46.5890 21.0230 290° West 445 512 38,000  Level FlightAware
10:08PM 46.6210 20.8970 290° West 446 513 38,000  Level FlightAware
10:09PM 46.6500 20.7810 290° West 447 514 38,000  Level FlightAware
10:10PM 46.6780 20.6690 290° West 447 514 38,000  Level FlightAware
10:10PM 46.7090 20.5430 290° West 449 517 38,000  Level FlightAware
10:11PM 46.7380 20.4260 290° West 450 518 38,000  Level FlightAware
10:12PM 46.7690 20.2980 290° West 451 519 38,000  Level FlightAware
10:12PM 46.7970 20.1820 289° West 448 516 38,000  Level FlightAware
10:13PM 46.8250 20.0680 290° West 447 514 38,000  Level FlightAware
10:14PM 46.8560 19.9390 289° West 446 513 38,000  Level FlightAware
10:15PM 46.8860 19.8130 289° West 443 510 38,000  Level FlightAware
10:15PM 46.9130 19.7010 289° West 443 510 38,000  Level FlightAware
10:16PM 46.9400 19.5860 289° West 445 512 38,000  Level FlightAware
10:17PM 46.9680 19.4680 289° West 446 513 38,000  Level FlightAware
10:17PM 46.9990 19.3350 289° West 441 507 38,000  Level FlightAware
10:18PM 47.0250 19.2270 289° West 440 506 38,000  Level FlightAware
10:19PM 47.0540 19.1020 289° West 441 507 38,000  Level FlightAware
10:19PM 47.0790 18.9930 289° West 441 507 38,000  Level FlightAware
10:20PM 47.1080 18.8650 288° West 439 505 38,000  Level FlightAware
10:21PM 47.1340 18.7490 288° West 444 511 38,000  Level FlightAware
10:22PM 47.1610 18.6340 289° West 443 510 38,000  Level FlightAware
10:22PM 47.1890 18.5060 288° West 440 506 38,000  Level FlightAware
10:23PM 47.2150 18.3910 288° West 441 507 38,000  Level FlightAware
10:24PM 47.2410 18.2770 289° West 442 509 38,000  Level FlightAware
10:24PM 47.2690 18.1480 288° West 444 511 38,000  Level FlightAware
10:25PM 47.2940 18.0350 288° West 444 511 38,000  Level FlightAware
10:26PM 47.3230 17.9040 288° West 445 512 38,000  Level FlightAware
10:26PM 47.3480 17.7890 288° West 442 509 38,000  Level FlightAware
10:27PM 47.3730 17.6730 288° West 444 511 38,000  Level FlightAware
10:28PM 47.4010 17.5430 288° West 444 511 38,000  Level FlightAware
10:29PM 47.4260 17.4270 288° West 443 510 38,000  Level FlightAware
10:29PM 47.4540 17.2960 288° West 440 506 38,000  Level FlightAware
10:30PM 47.4780 17.1830 287° West 436 502 38,000  Level FlightAware
10:31PM 47.5020 17.0690 287° West 436 502 38,000  Level FlightAware
10:31PM 47.5280 16.9420 287° West 437 503 38,000  Level FlightAware
10:32PM 47.5520 16.8280 287° West 438 504 38,000  Level FlightAware
10:33PM 47.5770 16.7150 288° West 440 506 38,000  Level FlightAware
10:33PM 47.6110 16.5880 292° West 442 509 38,000  Level FlightAware
10:34PM 47.6400 16.4770 291° West 442 509 38,000  Level FlightAware
10:35PM 47.6740 16.3480 291° West 443 510 38,000  Level FlightAware
10:36PM 47.7030 16.2350 291° West 444 511 38,000  Level FlightAware
10:36PM 47.7360 16.1070 291° West 447 514 38,000  Level FlightAware
10:37PM 47.7640 15.9970 291° West 443 510 38,000  Level FlightAware
10:38PM 47.7930 15.8860 291° West 435 501 38,000  Level FlightAware
10:38PM 47.8280 15.7480 291° West 437 503 38,000  Level FlightAware
10:39PM 47.8560 15.6350 290° West 436 502 38,000  Level FlightAware
10:40PM 47.8870 15.5120 291° West 439 505 38,000  Level FlightAware
10:40PM 47.9170 15.3930 291° West 440 506 38,000  Level FlightAware
10:41PM 47.9450 15.2800 290° West 442 509 38,000  Level FlightAware
10:42PM 47.9760 15.1550 290° West 445 512 38,000  Level FlightAware
10:43PM 48.0030 15.0440 290° West 447 514 38,000  Level FlightAware
10:43PM 48.0350 14.9130 290° West 449 517 38,000  Level FlightAware
10:44PM 48.0660 14.7880 290° West 450 518 38,000  Level FlightAware
10:45PM 48.1010 14.6780 296° West 458 527 38,000  Level FlightAware
10:45PM 48.1470 14.5520 299° West 458 527 38,000  Level FlightAware
10:46PM 48.1870 14.4410 298° West 458 527 38,000  Level FlightAware
10:47PM 48.2340 14.3110 299° West 458 527 38,000  Level FlightAware
10:47PM 48.2740 14.2010 299° West 457 526 38,000  Level FlightAware
10:48PM 48.3180 14.0780 298° West 455 524 38,000  Level FlightAware
10:49PM 48.3580 13.9660 298° West 455 524 38,000  Level FlightAware
10:50PM 48.4030 13.8400 298° West 455 524 38,000  Level FlightAware
10:50PM 48.4420 13.7280 298° West 457 526 38,000  Level FlightAware
10:51PM 48.4860 13.6050 298° West 459 528 38,000  Level FlightAware
10:52PM 48.5260 13.4900 298° West 458 527 38,000  Level FlightAware
10:52PM 48.5650 13.3770 298° West 458 527 38,000  Level FlightAware
10:53PM 48.6110 13.2480 298° West 452 520 38,000  Level FlightAware
10:54PM 48.6480 13.1390 297° West 453 521 38,000 -180 Level FlightAware
10:54PM 48.6870 13.0240 297° West 456 525 37,800 -660 Descending FlightAware
10:55PM 48.7280 12.9060 298° West 451 519 37,100 -1,020 Descending FlightAware
10:56PM 48.7680 12.7880 297° West 454 522 36,400 -1,020 Descending FlightAware
10:57PM 48.8120 12.6590 297° West 446 513 35,700 -1,020 Descending FlightAware
10:57PM 48.8490 12.5510 298° West 440 506 35,000 -1,020 Descending FlightAware
10:58PM 48.8860 12.4390 297° West 438 504 34,400 -1,020 Descending FlightAware
10:59PM 48.9260 12.3190 297° West 436 502 33,600 -1,020 Descending FlightAware
10:59PM 48.9630 12.2090 297° West 432 497 33,000 -1,080 Descending FlightAware
11:00PM 48.9900 12.1280 297° West 432 497 32,400 -1,140 Descending FlightAware
11:01PM 49.0250 12.0210 297° West 429 494 31,700 -1,080 Descending FlightAware
11:01PM 49.0650 11.9010 297° West 426 490 30,900 -1,080 Descending FlightAware
11:02PM 49.1010 11.7910 297° West 417 480 30,200 -1,140 Descending FlightAware
11:03PM 49.1360 11.6840 297° West 416 479 29,400 -1,140 Descending FlightAware
11:03PM 49.1730 11.5690 296° West 410 472 28,600 -1,080 Descending FlightAware
11:04PM 49.2070 11.4640 296° West 407 468 27,900 -1,080 Descending FlightAware
11:05PM 49.2350 11.3790 297° West 405 466 27,300 -1,140 Descending FlightAware
11:05PM 49.2760 11.2490 296° West 399 459 26,300 -1,140 Descending FlightAware
11:06PM 49.3090 11.1470 296° West 398 458 25,600 -1,080 Descending FlightAware
11:07PM 49.3430 11.0390 296° West 390 449 24,800 -1,020 Descending FlightAware
11:08PM 49.3750 10.9390 296° West 386 444 24,200 -960 Descending FlightAware
11:08PM 49.4090 10.8300 296° West 382 440 23,500 -1,020 Descending FlightAware
11:09PM 49.4360 10.7440 296° West 382 440 22,900 -1,080 Descending FlightAware
11:10PM 49.4710 10.6320 296° West 382 440 22,100 -1,020 Descending FlightAware
11:10PM 49.5030 10.5310 296° West 380 437 21,400 -1,020 Descending FlightAware
11:11PM 49.5370 10.4200 295° West 377 434 20,700 -1,080 Descending FlightAware
11:12PM 49.5670 10.3240 296° West 377 434 20,000 -1,020 Descending FlightAware
11:12PM 49.6010 10.2140 296° West 372 428 19,300 -1,020 Descending FlightAware
11:13PM 49.6310 10.1170 296° West 370 426 18,600 -1,020 Descending FlightAware
11:14PM 49.6610 10.0160 295° West 360 414 17,900 -1,020 Descending FlightAware
11:15PM 49.6890 9.9260 296° West 359 413 17,200 -1,080 Descending FlightAware
11:15PM 49.7220 9.8150 295° West 349 402 16,400 -1,020 Descending FlightAware
11:16PM 49.7480 9.7300 295° West 348 400 15,800 -1,020 Descending FlightAware
11:17PM 49.7760 9.6380 295° West 344 396 15,100 -1,020 Descending FlightAware
11:17PM 49.8050 9.5400 295° West 340 391 14,400 -1,020 Descending FlightAware
11:18PM 49.8340 9.4500 297° West 340 391 13,700 -1,080 Descending FlightAware
11:19PM 49.8750 9.3950 319° Northwest 337 388 12,900 -1,320 Descending FlightAware
11:19PM 49.9270 9.3320 322° Northwest 332 382 11,900 -1,320 Descending FlightAware
11:20PM 49.9710 9.2750 320° Northwest 321 369 11,200 -780 Descending FlightAware
11:21PM 50.0210 9.2080 319° Northwest 292 336 10,800 -900 Descending FlightAware
11:22PM 50.0570 9.1580 318° Northwest 257 296 10,000 -1,560 Descending FlightAware
11:22PM 50.0820 9.1220 317° Northwest 248 285 9,000 -2,340 Descending FlightAware
11:22PM 50.1040 9.0900 317° Northwest 247 284 7,900 -2,400 Descending FlightAware
11:23PM 50.1180 9.0700 318° Northwest 248 285 7,400 -1,380 Descending FlightAware
11:23PM 50.1430 9.0350 318° Northwest 241 277 6,900 -1,080 Descending FlightAware
11:23PM 50.1480 9.0230 303° West 242 278 6,700 -1,200 Descending FlightAware
11:24PM 50.1510 8.9940 279° West 241 277 6,400 -1,080 Descending FlightAware
11:24PM 50.1410 8.9330 256° West 229 264 5,900 -1,020 Descending FlightAware
11:25PM 50.1300 8.8890 249° West 222 255 5,400 -1,140 Descending FlightAware
11:25PM 50.1220 8.8540 250° West 221 254 4,900 -1,200 Descending FlightAware
11:25PM 50.1160 8.8290 249° West 221 254 4,600 -1,380 Descending FlightAware
11:26PM 50.1060 8.7840 251° West 211 243 3,900 -1,380 Descending FlightAware
11:26PM 50.1020 8.7700 246° West 205 236 3,700 -1,080 Descending FlightAware
11:26PM 50.0920 8.7300 249° West 189 217 3,200 -1,140 Descending FlightAware
11:27PM 50.0860 8.7010 252° West 186 214 2,700 -1,200 Descending FlightAware
11:27PM 50.0800 8.6770 249° West 174 200 2,300 -960 Descending FlightAware
11:28PM 50.0730 8.6480 249° West 144 166 2,000 -900 Descending FlightAware
11:28PM 50.0660 8.6200 249° West 133 153 1,500 -900 Descending FlightAware
11:28PM 50.0640 8.6110 251° West 128 147 1,400 -600 Descending FlightAware
11:29PM 50.0580 8.5850 250° West 131 151 1,100 -660 Descending FlightAware
11:29PM 50.0530 8.5640 250° West 134 154 800 -780 Descending FlightAware
11:30PM 50.0470 8.5390 250° West 134 154 400 -780 Descending FlightAware
11:30PM 50.0450 8.5290 253° West 136 157 300 -600 Descending FlightAware